Pahranagat National Wildlife Refuge, Nevada Weather observations

Data are for 10 minute period ending at time listed.
 Day   Time   Solar   Ave.   Ave.  Ave.  Vector  Max.   Baro.   Total    
  of    of     Rad.   Air    Rel.  Wind   Wind   Wind  Press.  Precip.   
Year   Day            Temp.  Hum.  Speed  Dir.   Gust                    
2016   (PST)  Kw/m2    F      %     mph   deg.    mph    mb.     in.     
-------------------------------------------------------------------------
 178    1:50   0.00   57.7    53    1.5   331     3.7   902.4    0.00 
 178    2:00   0.00   56.8    52    2.5   324     3.7   902.4    0.00 
 178    2:10   0.00   59.3    42    2.4   328     4.4   902.4    0.00 
 178    2:20   0.00   59.2    45    1.0   333     2.4   902.5    0.00 
 178    2:30   0.00   59.4    42    1.7   321     3.9   902.5    0.00 
 178    2:40   0.00   58.2    49    1.4   317     3.1   902.5    0.00 
 178    2:50   0.00   57.5    54    0.9   236     2.3   902.7    0.00 
 178    3:00   0.00   57.3    55    0.1     6     0.9   902.8    0.00 
 178    3:10   0.00   56.6    54    0.5   314     1.5   902.8    0.00 
 178    3:20   0.00   55.1    63    1.5   186     2.9   902.9    0.00 
 178    3:30   0.00   56.2    59    0.9   214     4.2   903.1    0.00 
 178    3:40   0.00   57.4    54    1.1   211     3.1   903.1    0.00 
 178    3:50   0.00   57.4    50    0.3   229     2.0   903.2    0.00 
 178    4:00   0.00   59.0    44    0.2   163     1.7   903.4    0.00 
 178    4:10   0.00   60.3    43    1.8   277     5.6   903.5    0.00 
 178    4:20   0.00   61.4    40    4.8   309     6.1   903.5    0.00 
 178    4:30   0.01   56.9    50    3.1   290     5.6   903.6    0.00 
 178    4:40   0.01   57.6    46    1.1   240     3.6   903.8    0.00 
 178    4:50   0.02   61.2    36    2.5   357     4.6   903.8    0.00 
 178    5:00   0.04   61.2    38    1.7   298     3.8   903.9    0.00 
 178    5:10   0.06   61.9    38    1.2   208     3.6   904.0    0.00 
 178    5:20   0.07   64.0    35    1.8   313     3.5   904.1    0.00 
 178    5:30   0.09   64.6    39    1.6   283     3.3   904.2    0.00 
 178    5:40   0.12   65.9    41    1.1   290     2.3   904.3    0.00 
 178    5:50   0.14   66.0    45    1.9   250     2.8   904.5    0.00 
 178    6:00   0.16   68.4    39    1.4   320     3.7   904.5    0.00 
 178    6:10   0.19   70.2    34    3.3   314     4.5   904.5    0.00 
 178    6:20   0.21   71.0    36    3.7   318     4.9   904.6    0.00 
 178    6:30   0.24   72.8    36    3.1   312     4.8   904.6    0.00 
 178    6:40   0.26   74.1    37    3.0   311     4.3   904.5    0.00 
 178    6:50   0.29   75.2    38    3.5   308     5.3   904.5    0.00 
 178    7:00   0.32   76.4    37    3.4   308     5.3   904.5    0.00 
 178    7:10   0.34   77.5    36    3.7   309     5.5   904.4    0.00 
 178    7:20   0.37   78.8    37    3.7   308     5.9   904.4    0.00 
 178    7:30   0.39   79.9    36    4.5   306     8.6   904.3    0.00 
 178    7:40   0.42   81.1    28    5.4   325     9.9   904.1    0.00 
 178    7:50   0.44   81.7    26    5.7   327     8.0   904.1    0.00 
 178    8:00   0.47   82.0    26    6.1   331     8.4   904.0    0.00 
 178    8:10   0.49   82.8    23    6.9   334    12.3   903.9    0.00 
 178    8:20   0.51   83.4    21    8.6   332    12.2   903.8    0.00 
 178    8:30   0.53   84.1    23    7.3   330    10.8   903.8    0.00 
 178    8:40   0.55   85.1    22    7.1   337    11.7   903.8    0.00 
 178    8:50   0.57   85.8    22    7.1   337    11.0   903.7    0.00 
 178    9:00   0.59   86.8    22    6.7   337     9.9   903.7    0.00 
 178    9:10   0.61   88.0    20    5.4   336     8.2   903.7    0.00 
 178    9:20   0.63   89.3    20    4.5   332     6.9   903.7    0.00 
 178    9:30   0.64   90.6    14    2.9   324     7.7   903.7    0.00 
 178    9:40   0.66   92.6    12    1.6   294     6.0   903.7    0.00 
 178    9:50   0.68   93.4    12    1.8   284     3.3   903.7    0.00 
 178   10:00   0.69   93.7    11    1.2   253     3.1   903.8    0.00 
 178   10:10   0.70   94.0    14    1.8   283     2.9   903.8    0.00 
 178   10:20   0.71   94.4    17    1.6   256     4.3   903.8    0.00 
 178   10:30   0.72   95.8    12    3.4   148     6.8   903.7    0.00 
 178   10:40   0.71   96.9    11    2.3   162     6.4   903.6    0.00 
 178   10:50   0.74   98.2    11    2.4   177     5.4   903.5    0.00 
 178   11:00   0.75   98.2    11    3.2   138     7.6   903.5    0.00 
 178   11:10   0.76   97.8    11    2.7   182     8.0   903.4    0.00 
 178   11:20   0.76   97.9    10    2.5   186     7.9   903.4    0.00 
 178   11:30   0.76   99.0    11    2.8   187     7.0   903.4    0.00 
 178   11:40   0.76   99.0    11    2.9   178     6.1   903.4    0.00 
 178   11:50   0.76   99.5    11    2.3   173     7.6   903.3    0.00 
 178   12:00   0.76   98.7    11    3.8    59     6.9   903.2    0.00 
 178   12:10   0.76  100.0    10    1.1   189     6.1   903.0    0.00 
 178   12:20   0.76   99.8    10    5.4   134    11.8   902.9    0.00 
 178   12:30   0.76   99.8    11    5.0   123    11.6   902.7    0.00 
 178   12:40   0.75   99.9    10    4.7   132    10.3   902.7    0.00 
 178   12:50   0.74  100.8    11    3.7   161     9.7   902.6    0.00 
 178   13:00   0.74  100.0    11    4.7   104    10.0   902.4    0.00 
 178   13:10   0.73  100.1    10    6.9   149    14.0   902.4    0.00 
 178   13:20   0.72  100.6    11    3.6   179    14.7   902.3    0.00 
 178   13:30   0.71  100.5    10    8.7   143    14.0   902.1    0.00 
 178   13:40   0.70  100.3    11    6.0   197    13.3   902.0    0.00 
 178   13:50   0.68  101.2    12    3.6   175     9.1   901.9    0.00 
 178   14:00   0.67   99.8    13    5.7   222    12.8   901.7    0.00 
 178   14:10   0.66  100.3    12    4.6   209     9.6   901.6    0.00 
 178   14:20   0.64   99.0    12    6.3   218    16.4   901.6    0.00 
 178   14:30   0.62  100.0    12    4.0   271    10.2   901.4    0.00 
 178   14:40   0.60   99.9    14    6.5   159    15.7   901.3    0.00 
 178   14:50   0.58   99.9    11    7.1   172    14.0   901.2    0.00 
 178   15:00   0.56  100.6    10    5.8   114    10.3   901.1    0.00 
 178   15:10   0.54  102.1    10    4.1   167     9.7   901.0    0.00 
 178   15:20   0.52  100.4    14    4.7   187    15.9   900.9    0.00 
 178   15:30   0.49  101.0    11    5.6   181    12.9   900.8    0.00 
 178   15:40   0.47  101.2    11    4.5   180    10.8   900.8    0.00 
 178   15:50   0.45  101.5    11    2.8   159     6.9   900.7    0.00 
 178   16:00   0.42  103.1    10    1.6   170     3.7   900.6    0.00 
 178   16:10   0.40  101.2    14    3.5   334     7.9   900.4    0.00 
 178   16:20   0.38  100.8    12    2.0   264     5.3   900.4    0.00 
 178   16:30   0.35  103.9     7    0.7   131     2.0   900.3    0.00 
 178   16:40   0.32  103.2     9    3.1   152     6.6   900.3    0.00 
 178   16:50   0.29  101.6    10    3.7   135     6.9   900.2    0.00 
 178   17:00   0.27  100.1    11    5.3   138    11.0   900.2    0.00 
 178   17:10   0.24   98.2    11    6.7   150    12.6   900.3    0.00 
 178   17:20   0.22   98.2    12    5.3   144     9.9   900.3    0.00 
 178   17:30   0.19   97.8    11    5.8   136    11.5   900.3    0.00 
 178   17:40   0.17   98.0    11    5.5   124    10.4   900.3    0.00 
 178   17:50   0.14   98.1     9    6.6   112    10.5   900.2    0.00 
 178   18:00   0.12   98.1     9    6.0   108     9.3   900.2    0.00 
 178   18:10   0.10   96.8    10    5.6   128     7.9   900.2    0.00 
 178   18:20   0.08   96.3    10    6.2   128    10.9   900.3    0.00 
 178   18:30   0.06   95.9    10    5.0   134     8.9   900.3    0.00 
 178   18:40   0.04   92.0    14    4.6   149     6.1   900.4    0.00 
 178   18:50   0.01   88.9    16    4.4   138     5.1   900.4    0.00 
 178   19:00   0.01   89.2    15    4.3   125     4.9   900.2    0.00 
 178   19:10   0.00   89.2    14    3.7   130     5.0   900.2    0.00 
 178   19:20   0.00   87.4    14    2.0   139     3.4   900.1    0.00 
 178   19:30   0.00   85.1    16    0.3   134     1.4   900.2    0.00 
 178   19:40   0.00   81.8    21    0.6   332     1.8   900.3    0.00 
 178   19:50   0.00   77.6    26    2.9   342     4.4   900.3    0.00 
 178   20:00   0.00   81.2    16    3.7     1     4.1   900.4    0.00 
 178   20:10   0.00   85.3    12    3.5     8     4.2   900.6    0.00 
 178   20:20   0.00   86.0    13    3.4    25     4.7   900.9    0.00 
 178   20:30   0.00   72.8    40    2.9   326     3.9   901.1    0.00 
 178   20:40   0.00   71.3    33    2.5   344     5.0   901.3    0.00 
 178   20:50   0.00   73.7    28    0.9   275     2.6   901.4    0.00 
 178   21:00   0.00   71.7    33    2.2   338     6.7   901.5    0.00 
 178   21:10   0.00   75.4    20    1.9    33     3.7   901.6    0.00 
 178   21:20   0.00   70.2    39    2.9   323     4.2   901.6    0.00 
 178   21:30   0.00   69.0    31    2.8   355     4.0   901.7    0.00 
 178   21:40   0.00   70.9    27    2.8   342     4.2   901.7    0.00 
 178   21:50   0.00   66.7    44    2.2   290     4.1   901.8    0.00 
 178   22:00   0.00   64.6    46    1.4   301     2.9   901.8    0.00 
 178   22:10   0.00   66.7    37    2.0   308     3.6   901.8    0.00 
 178   22:20   0.00   66.5    36    0.5   322     2.0   901.9    0.00 
 178   22:30   0.00   68.2    30    0.7   352     1.8   902.0    0.00 
 178   22:40   0.00   69.3    27    0.6   226     2.6   902.0    0.00 
 178   22:50   0.00   69.2    28    1.2   240     2.7   902.0    0.00 
 178   23:00   0.00   70.1    22    0.9    46     2.2   902.0    0.00 
 178   23:10   0.00   69.4    28    2.1   347     3.9   902.0    0.00 
 178   23:20   0.00   64.3    40    2.8   314     3.4   902.1    0.00 
 178   23:30   0.00   66.2    34    1.4   334     3.1   902.2    0.00 
 178   23:40   0.00   66.5    40    4.9   321     7.8   902.2    0.00 
 178   23:50   0.00   62.4    51    4.3   298     7.3   902.2    0.00 
 179    0:00   0.00   64.6    38    4.2   325     5.0   902.2    0.00 
 179    0:10   0.00   66.6    33    4.2    13     5.3   902.3    0.00 
 179    0:20   0.00   65.7    36    3.0   342     5.4   902.3    0.00 
 179    0:30   0.00   64.3    40    4.0   339     6.7   902.3    0.00 
 179    0:40   0.00   60.4    53    1.7   308     4.2   902.3    0.00 
 179    0:50   0.00   60.4    50    3.4   299     4.6   902.3    0.00 
 179    1:00   0.00   65.4    31    4.3   344     5.5   902.4    0.00 
 179    1:10   0.00   65.9    29    3.5   351     5.8   902.5    0.00 
 179    1:20   0.00   64.1    31    3.3   354     5.1   902.6    0.00 
 179    1:30   0.00   64.1    32    2.4   348     4.3   902.6    0.00 
 179    1:40   0.00   61.4    44    1.5   265     2.6   902.8    0.00 

Return to Pahranagat N. Wildlife Refuge graphs page.


Western Regional Climate Center,wrcc@dri.edu